TimeHST,TemperatureF,Dew PointF,Humidity,Sea Level PressureIn,VisibilityMPH,Wind Direction,Wind SpeedMPH,Gust SpeedMPH,PrecipitationIn,Events,Conditions,WindDirDegrees,DateUTC
12:53 AM,70.0,66.0,87,30.04,10.0,NNW,4.6,-,N/A,,Clear,340,2013-05-19 10:53:00
1:53 AM,71.1,66.0,84,30.03,10.0,NNW,8.1,-,N/A,,Clear,340,2013-05-19 11:53:00
2:53 AM,68.0,64.9,90,30.01,10.0,WNW,4.6,-,N/A,,Clear,290,2013-05-19 12:53:00
3:53 AM,68.0,64.9,90,30.01,10.0,West,4.6,-,N/A,,Clear,260,2013-05-19 13:53:00
4:53 AM,66.9,63.0,87,30.01,10.0,WSW,4.6,-,N/A,,Clear,250,2013-05-19 14:53:00
5:53 AM,66.0,63.0,90,30.01,10.0,West,5.8,-,N/A,,Clear,280,2013-05-19 15:53:00
6:28 AM,68.0,64.4,88,30.01,10.0,WNW,4.6,-,N/A,,Scattered Clouds,300,2013-05-19 16:28:00
6:53 AM,68.0,64.0,87,30.01,10.0,WNW,4.6,-,N/A,,Clear,290,2013-05-19 16:53:00
7:53 AM,70.0,64.9,84,30.02,10.0,West,3.5,-,N/A,,Overcast,270,2013-05-19 17:53:00
8:53 AM,75.9,66.9,74,30.02,10.0,NNE,6.9,-,N/A,,Clear,20,2013-05-19 18:53:00
9:53 AM,75.9,68.0,76,30.02,10.0,NNE,13.8,-,N/A,,Mostly Cloudy,30,2013-05-19 19:53:00
10:53 AM,75.0,66.9,76,30.02,10.0,NNE,15.0,-,N/A,,Mostly Cloudy,20,2013-05-19 20:53:00
11:53 AM,73.0,66.9,81,30.01,10.0,North,13.8,-,0.00,,Overcast,360,2013-05-19 21:53:00
12:53 PM,75.0,68.0,79,29.99,10.0,North,11.5,-,0.00,Rain,Light Rain,350,2013-05-19 22:53:00
1:49 PM,69.8,66.2,88,30.00,1.8,NNE,8.1,-,0.04,Rain,Heavy Rain,20,2013-05-19 23:49:00
1:53 PM,69.1,66.0,90,29.99,1.8,North,8.1,-,0.05,Rain,Heavy Rain,10,2013-05-19 23:53:00
2:19 PM,69.8,66.2,88,29.99,3.0,NE,9.2,-,0.09,Rain,Light Rain,50,2013-05-20 00:19:00
2:26 PM,69.8,66.2,88,29.99,5.0,NE,9.2,-,0.09,Rain,Light Rain,50,2013-05-20 00:26:00
2:53 PM,70.0,68.0,93,29.98,6.0,NE,5.8,-,0.10,Rain,Light Rain,40,2013-05-20 00:53:00
3:53 PM,70.0,66.9,90,29.96,7.0,North,10.4,-,0.00,Rain,Light Rain,10,2013-05-20 01:53:00
4:11 PM,69.8,68.0,94,29.97,5.0,North,6.9,-,N/A,Rain,Rain,10,2013-05-20 02:11:00
4:53 PM,69.1,66.9,93,29.97,5.0,North,11.5,-,0.01,Rain,Light Rain,360,2013-05-20 02:53:00
5:51 PM,68.0,66.2,94,29.98,10.0,North,10.4,-,0.03,,Overcast,350,2013-05-20 03:51:00
5:53 PM,68.0,66.0,93,29.97,10.0,North,10.4,-,0.03,,Overcast,350,2013-05-20 03:53:00
6:53 PM,68.0,64.0,87,29.99,10.0,North,11.5,-,N/A,,Overcast,360,2013-05-20 04:53:00
7:53 PM,68.0,64.0,87,29.99,10.0,North,6.9,-,N/A,,Overcast,350,2013-05-20 05:53:00
8:53 PM,68.0,62.1,81,30.01,10.0,North,10.4,-,N/A,,Overcast,350,2013-05-20 06:53:00
9:53 PM,68.0,62.1,81,30.01,10.0,North,10.4,-,N/A,,Overcast,360,2013-05-20 07:53:00
10:53 PM,66.9,60.1,79,30.02,10.0,North,8.1,-,N/A,,Overcast,350,2013-05-20 08:53:00
11:53 PM,66.0,59.0,78,30.01,10.0,North,8.1,-,N/A,,Clear,350,2013-05-20 09:53:00